x

Settlement Point, Gbi (spgf1) Weather Station

4:00pm - Fri 18th Apr 2014 All times are EDT. -4 hours from GMT.

  • Wind
    14mph, 20mph gusts
  • Air Temp 80°f
  • Sea Pressure 1017.1mb
  • Settlement Point, Gbi
  • Settlement Point, Gbi

More Historic Weather Station data

Upgrade to MSW Pro to gain access to the past 30 days of data for over 8000 Wavebouys and Weather Stations around the globe.

Join Pro

Comparision Forecast

View Surf forecast
   
Fri 04/18 4:00pm 14 20 mph 1017.1mb 80f
3:00pm 17 21 mph 1017.5mb 79f
2:00pm 18 22 mph 1018.1mb 80f
1:00pm 17 23 mph 1018.6mb 79f
12:00pm 17 22 mph 1018.8mb 79f
11:00am 16 20 mph 1019mb 78f
10:00am 13 15 mph 1019.5mb 77f
9:00am 13 15 mph 1019.5mb 76f
8:00am 17 20 mph 1018.4mb 75f
7:00am 10 11 mph 1018.5mb 74f
6:00am 9 11 mph 1018.1mb 74f
5:00am 8 9 mph 1018.1mb 75f
4:00am 9 10 mph 1018.2mb 75f
3:00am 10 13 mph 1018.7mb 76f
2:00am 7 8 mph 1019.1mb 74f
1:00am 11 15 mph 1019.9mb 74f
12:00am 20 21 mph 1020.3mb 76f
Thu 04/17 11:00pm 21 22 mph 1020.7mb 76f
10:00pm 22 24 mph 1020.3mb 76f
9:00pm 24 28 mph 1019.6mb 76f
8:00pm 24 26 mph 1019.8mb 76f
7:00pm 25 28 mph 1019.6mb 76f
6:00pm 26 30 mph 1020.1mb 76f
5:00pm 24 28 mph 1020.1mb 76f
4:00pm 24 26 mph 1020.3mb 76f
3:00pm 22 24 mph 1020.6mb 76f
2:00pm 22 24 mph 1021.2mb 76f
1:00pm 16 18 mph 1021.8mb 77f
12:00pm 18 20 mph 1021.7mb 76f
11:00am 18 20 mph 1021.9mb 76f
10:00am 16 18 mph 1021.5mb 76f
9:00am 16 17 mph 1020.8mb 76f
8:00am 15 17 mph 1020.2mb 76f
7:00am 16
mph
1019.5mb 75f
6:00am 14 16 mph 1019.1mb 75f
5:00am 16 17 mph 1018.6mb 75f
4:00am 15 17 mph 1018.5mb 76f
3:00am 17 20 mph 1018.4mb 76f
2:00am 17 18 mph 1018.9mb 76f
1:00am 20 21 mph 1019.3mb 76f
12:00am 21 23 mph 1019.4mb 76f
Wed 04/16 11:00pm 20 22 mph 1019.5mb 75f
10:00pm 18 20 mph 1019.4mb 76f
9:00pm 23 25 mph 1018.6mb 75f
8:00pm 23 25 mph 1017.7mb 75f
7:00pm 23 25 mph 1017.2mb 75f
6:00pm 18 22 mph 1017.1mb 75f
5:00pm 16 20 mph 1016.9mb 76f
4:00pm 16 17 mph 1017.1mb 75f
3:00pm 16 18 mph 1017.7mb 75f
2:00pm 16 17 mph 1018mb 74f
1:00pm 18 20 mph 1018.4mb 74f
12:00pm 21 22 mph 1018.6mb 74f
11:00am 20 21 mph 1018.5mb 74f
10:00am 24 26 mph 1017.1mb 74f
9:00am 25 28 mph 1016.5mb 74f
8:00am 17 20 mph 1015.6mb 76f
7:00am 16 17 mph 1015.1mb 76f
6:00am 11 14 mph 1014.5mb 74f
5:00am 13 14 mph 1013.5mb 78f
4:00am 13 14 mph 1013.7mb 78f
3:00am 11 13 mph 1013.7mb 78f
2:00am 14
mph
1013.8mb 78f
1:00am 11 13 mph 1014.1mb 78f
12:00am 15 16 mph 1014.1mb 78f
Tue 04/15 11:00pm 16 18 mph 1014mb 78f
10:00pm 18 21 mph 1014mb 79f
9:00pm 20 23 mph 1013.9mb 79f
8:00pm 21 22 mph 1013.5mb 79f
7:00pm 20 22 mph 1013.1mb 79f
6:00pm 18 21 mph 1012.3mb 79f
5:00pm 18 21 mph 1012.2mb 79f
4:00pm 18 21 mph 1012.3mb 79f
3:00pm 16 18 mph 1013.3mb 79f
2:00pm 16 20 mph 1013.8mb 79f
1:00pm 18 20 mph 1014.4mb 79f
12:00pm 17 20 mph 1014.9mb 79f
11:00am 20 21 mph 1015mb 78f
10:00am 18 21 mph 1014.8mb 78f
9:00am 18 22 mph 1014.5mb 78f
8:00am 15 17 mph 1014.3mb 78f
7:00am 13 17 mph 1014mb 77f
6:00am 13 16 mph 1013.7mb 77f
5:00am 13 15 mph 1013.7mb 77f
4:00am 11 15 mph 1013.6mb 76f
3:00am 11 15 mph 1013.7mb 76f
2:00am 8 10 mph 1014.1mb 75f
1:00am 9 13 mph 1014.6mb 76f
12:00am 10 13 mph 1014.6mb 76f
Mon 04/14 11:00pm 10 14 mph 1014.9mb 76f
10:00pm 9 11 mph 1014.9mb 76f